메인 페이지
METAR-TAF:

METAR-TAF

공항 :

아이딘, 터키

위도: 37-48-54N, 경도: 27-53-21E, 고도: 31m

현재 날씨관측

예보는 30분 전, 09:50시(UTC)에 발표되었습니다.
북북동3kt북북서풍과 동북동풍을 오가는
온도 14°C
습도 77%
기압 1006 hPa
시정 10km 이상
고도 3800ft 상공 구름 보통
고도 8000ft 상공 구름 많음

METAR: LTBD 120950Z 02003KT 340V070 9999 SCT038 BKN080 14/10 Q1006

시각: 13:20 (10:20 UTC)

예보

예보는 2 시간 40분 전, 07:40시(UTC)에 발표되었습니다.
예보 대상 시간: 12일 09시부터 12일 18시까지 (UTC)
7kt
시정 10km 이상
고도 3500ft 상공 구름 보통
고도 10000ft 상공 구름 많음
일시적
12일 12시부터 12일 16시까지 (UTC)
약한소나기

TAF: LTBD 120740Z 1209/1218 08007KT 9999 SCT035 BKN100 TEMPO 1212/1216 -SHRA

4,000개 이상의 공항 관측 자료 및 예보 (METAR 및 TAF 보고).

지도상에서 검색 가능한 기상관측소가 노란 점과 빨간 점으로 표시되어 있습니다.

기상관측소 명을 보려면 표시 위로 마우스를 이동하세요.

날씨 관측과 예보를 보려면 클릭하세요.

지도 변경 : 확대하려면 엑스 표시가 있는 녹색 버튼, 축소하려면 빼기 표시가 있는 녹색 버튼, 다음 페이지의 지도를 보려면 녹색 화살표를 클릭하세요.


METAR-TAF: